sensor_id;sensor_type;location;lat;lon;timestamp;temperature;humidity
67976;DHT22;54757;50.890;20.670;2022-07-25T00:00:07;23;74
67976;DHT22;54757;50.890;20.670;2022-07-25T00:07:17;23;74
67976;DHT22;54757;50.890;20.670;2022-07-25T00:14:18;23;74
67976;DHT22;54757;50.890;20.670;2022-07-25T00:21:05;23;74
67976;DHT22;54757;50.890;20.670;2022-07-25T00:28:02;23;74
67976;DHT22;54757;50.890;20.670;2022-07-25T00:35:17;23;74
67976;DHT22;54757;50.890;20.670;2022-07-25T00:42:17;23;74
67976;DHT22;54757;50.890;20.670;2022-07-25T00:49:19;23;74
67976;DHT22;54757;50.890;20.670;2022-07-25T00:56:09;23;74
67976;DHT22;54757;50.890;20.670;2022-07-25T01:00:05;23;74
67976;DHT22;54757;50.890;20.670;2022-07-25T01:07:03;23;71
67976;DHT22;54757;50.890;20.670;2022-07-25T01:14:07;23;71
67976;DHT22;54757;50.890;20.670;2022-07-25T01:21:17;23;71
67976;DHT22;54757;50.890;20.670;2022-07-25T01:28:16;23;71
67976;DHT22;54757;50.890;20.670;2022-07-25T01:35:25;26;89
67976;DHT22;54757;50.890;20.670;2022-07-25T01:42:17;26;89
67976;DHT22;54757;50.890;20.670;2022-07-25T01:49:04;26;89
67976;DHT22;54757;50.890;20.670;2022-07-25T01:56:04;26;89
67976;DHT22;54757;50.890;20.670;2022-07-25T02:00:20;26;89
67976;DHT22;54757;50.890;20.670;2022-07-25T02:07:18;25;91
67976;DHT22;54757;50.890;20.670;2022-07-25T02:14:17;25;91
67976;DHT22;54757;50.890;20.670;2022-07-25T02:21:19;25;91
67976;DHT22;54757;50.890;20.670;2022-07-25T02:28:02;25;91
67976;DHT22;54757;50.890;20.670;2022-07-25T02:35:15;25;92
67976;DHT22;54757;50.890;20.670;2022-07-25T02:42:03;25;92
67976;DHT22;54757;50.890;20.670;2022-07-25T02:49:04;25;92
67976;DHT22;54757;50.890;20.670;2022-07-25T02:56:05;25;92
67976;DHT22;54757;50.890;20.670;2022-07-25T03:00:14;25;92
67976;DHT22;54757;50.890;20.670;2022-07-25T03:07:17;25;94
67976;DHT22;54757;50.890;20.670;2022-07-25T03:14:19;25;94
67976;DHT22;54757;50.890;20.670;2022-07-25T03:21:20;25;94
67976;DHT22;54757;50.890;20.670;2022-07-25T03:28:02;25;94
67976;DHT22;54757;50.890;20.670;2022-07-25T03:35:08;25;85
67976;DHT22;54757;50.890;20.670;2022-07-25T03:42:04;25;85
67976;DHT22;54757;50.890;20.670;2022-07-25T03:49:04;25;85
67976;DHT22;54757;50.890;20.670;2022-07-25T03:56:03;25;85
67976;DHT22;54757;50.890;20.670;2022-07-25T04:00:07;25;85
67976;DHT22;54757;50.890;20.670;2022-07-25T04:07:03;25;86
67976;DHT22;54757;50.890;20.670;2022-07-25T04:14:17;25;86
67976;DHT22;54757;50.890;20.670;2022-07-25T04:21:14;25;86
67976;DHT22;54757;50.890;20.670;2022-07-25T04:28:03;25;86
67976;DHT22;54757;50.890;20.670;2022-07-25T04:35:05;25;86
67976;DHT22;54757;50.890;20.670;2022-07-25T04:42:04;25;86
67976;DHT22;54757;50.890;20.670;2022-07-25T04:49:17;25;86
67976;DHT22;54757;50.890;20.670;2022-07-25T04:56:04;25;86
67976;DHT22;54757;50.890;20.670;2022-07-25T05:00:15;25;86
67976;DHT22;54757;50.890;20.670;2022-07-25T05:07:18;24;89
67976;DHT22;54757;50.890;20.670;2022-07-25T05:14:03;24;89
67976;DHT22;54757;50.890;20.670;2022-07-25T05:21:08;24;89
67976;DHT22;54757;50.890;20.670;2022-07-25T05:28:03;24;89
67976;DHT22;54757;50.890;20.670;2022-07-25T05:35:22;24;89
67976;DHT22;54757;50.890;20.670;2022-07-25T05:42:17;24;89
67976;DHT22;54757;50.890;20.670;2022-07-25T05:49:02;24;89
67976;DHT22;54757;50.890;20.670;2022-07-25T05:56:21;24;89
67976;DHT22;54757;50.890;20.670;2022-07-25T06:00:17;24;89
67976;DHT22;54757;50.890;20.670;2022-07-25T06:07:15;23;90
67976;DHT22;54757;50.890;20.670;2022-07-25T06:14:03;23;90
67976;DHT22;54757;50.890;20.670;2022-07-25T06:21:19;23;90
67976;DHT22;54757;50.890;20.670;2022-07-25T06:28:04;23;90
67976;DHT22;54757;50.890;20.670;2022-07-25T06:35:17;24;89
67976;DHT22;54757;50.890;20.670;2022-07-25T06:42:16;24;89
67976;DHT22;54757;50.890;20.670;2022-07-25T06:49:02;24;89
67976;DHT22;54757;50.890;20.670;2022-07-25T06:56:16;24;89
67976;DHT22;54757;50.890;20.670;2022-07-25T07:00:13;24;89
67976;DHT22;54757;50.890;20.670;2022-07-25T07:07:03;24;90
67976;DHT22;54757;50.890;20.670;2022-07-25T07:14:03;24;90
67976;DHT22;54757;50.890;20.670;2022-07-25T07:21:02;24;90
67976;DHT22;54757;50.890;20.670;2022-07-25T07:28:07;24;90
67976;DHT22;54757;50.890;20.670;2022-07-25T07:42:15;24;89
67976;DHT22;54757;50.890;20.670;2022-07-25T07:49:21;24;89
67976;DHT22;54757;50.890;20.670;2022-07-25T07:56:18;24;89
67976;DHT22;54757;50.890;20.670;2022-07-25T08:00:01;24;89
67976;DHT22;54757;50.890;20.670;2022-07-25T08:14:07;24;87
67976;DHT22;54757;50.890;20.670;2022-07-25T08:21:03;24;87
67976;DHT22;54757;50.890;20.670;2022-07-25T08:28:21;24;87
67976;DHT22;54757;50.890;20.670;2022-07-25T08:42:07;24;88
67976;DHT22;54757;50.890;20.670;2022-07-25T08:49:22;24;88
67976;DHT22;54757;50.890;20.670;2022-07-25T08:56:08;24;88
67976;DHT22;54757;50.890;20.670;2022-07-25T09:00:28;24;88
67976;DHT22;54757;50.890;20.670;2022-07-25T09:14:04;24;88
67976;DHT22;54757;50.890;20.670;2022-07-25T09:21:24;24;88
67976;DHT22;54757;50.890;20.670;2022-07-25T09:28:24;24;88
67976;DHT22;54757;50.890;20.670;2022-07-25T09:35:28;24;88
67976;DHT22;54757;50.890;20.670;2022-07-25T09:42:42;23;90
67976;DHT22;54757;50.890;20.670;2022-07-25T09:49:16;23;90
67976;DHT22;54757;50.890;20.670;2022-07-25T09:56:07;23;90
67976;DHT22;54757;50.890;20.670;2022-07-25T10:00:10;23;90
67976;DHT22;54757;50.890;20.670;2022-07-25T10:14:13;23;90
67976;DHT22;54757;50.890;20.670;2022-07-25T10:21:14;23;90
67976;DHT22;54757;50.890;20.670;2022-07-25T10:28:43;23;90
67976;DHT22;54757;50.890;20.670;2022-07-25T10:35:11;23;90
67976;DHT22;54757;50.890;20.670;2022-07-25T10:42:32;23;91
67976;DHT22;54757;50.890;20.670;2022-07-25T10:49:23;23;91
67976;DHT22;54757;50.890;20.670;2022-07-25T10:56:21;23;91
67976;DHT22;54757;50.890;20.670;2022-07-25T11:00:07;23;91
67976;DHT22;54757;50.890;20.670;2022-07-25T11:14:29;23;91
67976;DHT22;54757;50.890;20.670;2022-07-25T11:21:16;23;91
67976;DHT22;54757;50.890;20.670;2022-07-25T11:28:05;23;91
67976;DHT22;54757;50.890;20.670;2022-07-25T11:35:13;23;91
67976;DHT22;54757;50.890;20.670;2022-07-25T11:42:38;23;90
67976;DHT22;54757;50.890;20.670;2022-07-25T11:49:20;23;90
67976;DHT22;54757;50.890;20.670;2022-07-25T11:56:11;23;90
67976;DHT22;54757;50.890;20.670;2022-07-25T12:00:25;23;90
67976;DHT22;54757;50.890;20.670;2022-07-25T12:07:17;23;90
67976;DHT22;54757;50.890;20.670;2022-07-25T12:14:09;23;90
67976;DHT22;54757;50.890;20.670;2022-07-25T12:21:16;23;90
67976;DHT22;54757;50.890;20.670;2022-07-25T12:28:20;23;90
67976;DHT22;54757;50.890;20.670;2022-07-25T12:35:14;23;90
67976;DHT22;54757;50.890;20.670;2022-07-25T12:42:14;24;90
67976;DHT22;54757;50.890;20.670;2022-07-25T12:49:02;24;90
67976;DHT22;54757;50.890;20.670;2022-07-25T12:56:14;24;90
67976;DHT22;54757;50.890;20.670;2022-07-25T13:00:25;24;90
67976;DHT22;54757;50.890;20.670;2022-07-25T13:07:04;24;90
67976;DHT22;54757;50.890;20.670;2022-07-25T13:14:17;25;88
67976;DHT22;54757;50.890;20.670;2022-07-25T13:21:20;25;88
67976;DHT22;54757;50.890;20.670;2022-07-25T13:28:03;25;88
67976;DHT22;54757;50.890;20.670;2022-07-25T13:35:17;25;88
67976;DHT22;54757;50.890;20.670;2022-07-25T13:42:05;25;88
67976;DHT22;54757;50.890;20.670;2022-07-25T13:49:05;25;88
67976;DHT22;54757;50.890;20.670;2022-07-25T13:56:18;25;88
67976;DHT22;54757;50.890;20.670;2022-07-25T14:00:01;25;88
67976;DHT22;54757;50.890;20.670;2022-07-25T14:07:16;25;88
67976;DHT22;54757;50.890;20.670;2022-07-25T14:14:03;25;88
67976;DHT22;54757;50.890;20.670;2022-07-25T14:21:05;25;88
67976;DHT22;54757;50.890;20.670;2022-07-25T14:28:17;25;88
67976;DHT22;54757;50.890;20.670;2022-07-25T14:35:19;25;88
67976;DHT22;54757;50.890;20.670;2022-07-25T14:42:03;26;86
67976;DHT22;54757;50.890;20.670;2022-07-25T14:49:20;26;86
67976;DHT22;54757;50.890;20.670;2022-07-25T14:56:16;26;86
67976;DHT22;54757;50.890;20.670;2022-07-25T15:00:01;26;86
67976;DHT22;54757;50.890;20.670;2022-07-25T15:07:04;26;86
67976;DHT22;54757;50.890;20.670;2022-07-25T15:21:17;23;71
67976;DHT22;54757;50.890;20.670;2022-07-25T15:28:17;23;71
67976;DHT22;54757;50.890;20.670;2022-07-25T15:35:16;23;71
67976;DHT22;54757;50.890;20.670;2022-07-25T15:49:19;23;71
67976;DHT22;54757;50.890;20.670;2022-07-25T15:56:18;23;71
67976;DHT22;54757;50.890;20.670;2022-07-25T16:00:26;23;71
67976;DHT22;54757;50.890;20.670;2022-07-25T16:07:06;23;71
67976;DHT22;54757;50.890;20.670;2022-07-25T16:21:06;23;72
67976;DHT22;54757;50.890;20.670;2022-07-25T16:28:04;23;72
67976;DHT22;54757;50.890;20.670;2022-07-25T16:35:16;23;72
67976;DHT22;54757;50.890;20.670;2022-07-25T16:49:20;23;72
67976;DHT22;54757;50.890;20.670;2022-07-25T16:56:12;23;72
67976;DHT22;54757;50.890;20.670;2022-07-25T17:00:13;23;72
67976;DHT22;54757;50.890;20.670;2022-07-25T17:07:02;23;72
67976;DHT22;54757;50.890;20.670;2022-07-25T17:21:20;23;73
67976;DHT22;54757;50.890;20.670;2022-07-25T17:28:07;23;73
67976;DHT22;54757;50.890;20.670;2022-07-25T17:35:17;23;73
67976;DHT22;54757;50.890;20.670;2022-07-25T17:49:04;23;73
67976;DHT22;54757;50.890;20.670;2022-07-25T17:56:04;23;73
67976;DHT22;54757;50.890;20.670;2022-07-25T18:00:09;23;73
67976;DHT22;54757;50.890;20.670;2022-07-25T18:07:17;23;73
67976;DHT22;54757;50.890;20.670;2022-07-25T18:21:17;23;73
67976;DHT22;54757;50.890;20.670;2022-07-25T18:28:20;23;73
67976;DHT22;54757;50.890;20.670;2022-07-25T18:35:06;23;73
67976;DHT22;54757;50.890;20.670;2022-07-25T18:49:04;23;73
67976;DHT22;54757;50.890;20.670;2022-07-25T18:56:17;23;73
67976;DHT22;54757;50.890;20.670;2022-07-25T19:00:13;23;73
67976;DHT22;54757;50.890;20.670;2022-07-25T19:07:18;23;73
67976;DHT22;54757;50.890;20.670;2022-07-25T19:21:06;23;73
67976;DHT22;54757;50.890;20.670;2022-07-25T19:28:06;23;73
67976;DHT22;54757;50.890;20.670;2022-07-25T19:35:03;23;73
67976;DHT22;54757;50.890;20.670;2022-07-25T19:49:18;23;73
67976;DHT22;54757;50.890;20.670;2022-07-25T19:56:20;23;73
67976;DHT22;54757;50.890;20.670;2022-07-25T20:00:06;23;73
67976;DHT22;54757;50.890;20.670;2022-07-25T20:07:28;23;73
67976;DHT22;54757;50.890;20.670;2022-07-25T20:21:06;23;72
67976;DHT22;54757;50.890;20.670;2022-07-25T20:28:05;23;72
67976;DHT22;54757;50.890;20.670;2022-07-25T20:35:05;23;72
67976;DHT22;54757;50.890;20.670;2022-07-25T20:42:16;23;72
67976;DHT22;54757;50.890;20.670;2022-07-25T20:49:31;23;72
67976;DHT22;54757;50.890;20.670;2022-07-25T20:56:04;23;72
67976;DHT22;54757;50.890;20.670;2022-07-25T21:00:22;23;72
67976;DHT22;54757;50.890;20.670;2022-07-25T21:07:16;23;72
67976;DHT22;54757;50.890;20.670;2022-07-25T21:21:03;26;68
67976;DHT22;54757;50.890;20.670;2022-07-25T21:28:02;26;68
67976;DHT22;54757;50.890;20.670;2022-07-25T21:35:06;26;68
67976;DHT22;54757;50.890;20.670;2022-07-25T21:42:13;26;68
67976;DHT22;54757;50.890;20.670;2022-07-25T21:56:07;25;82
67976;DHT22;54757;50.890;20.670;2022-07-25T22:00:12;25;82
67976;DHT22;54757;50.890;20.670;2022-07-25T22:07:04;25;82
67976;DHT22;54757;50.890;20.670;2022-07-25T22:14:06;25;81
67976;DHT22;54757;50.890;20.670;2022-07-25T22:21:03;25;81
67976;DHT22;54757;50.890;20.670;2022-07-25T22:28:19;25;81
67976;DHT22;54757;50.890;20.670;2022-07-25T22:35:15;25;84
67976;DHT22;54757;50.890;20.670;2022-07-25T22:42:05;25;84
67976;DHT22;54757;50.890;20.670;2022-07-25T22:49:18;25;84
67976;DHT22;54757;50.890;20.670;2022-07-25T22:56:05;25;84
67976;DHT22;54757;50.890;20.670;2022-07-25T23:07:02;24;85
67976;DHT22;54757;50.890;20.670;2022-07-25T23:14:18;24;85
67976;DHT22;54757;50.890;20.670;2022-07-25T23:21:18;24;85
67976;DHT22;54757;50.890;20.670;2022-07-25T23:28:18;24;85
67976;DHT22;54757;50.890;20.670;2022-07-25T23:42:06;24;85
67976;DHT22;54757;50.890;20.670;2022-07-25T23:49:06;24;85
67976;DHT22;54757;50.890;20.670;2022-07-25T23:56:13;24;85
